Time;durP1;ratioP1;P1;durP2;ratioP2;P2;SDS_P1;SDS_P2;PMS_P1;PMS_P2;Temp;Humidity;BMP_temperature;BMP_pressure;BME280_temperature;BME280_humidity;BME280_pressure;Samples;Min_cycle;Max_cycle;Signal;HPM_P1;HPM_P2
2022/08/16 00:00:11;;;;;;;0.00;0.00;;;22.20;77.30;;;;;;5051663;28;20053;-66
2022/08/16 00:02:37;;;;;;;0.00;0.00;;;22.20;77.50;;;;;;5064284;28;20044;-67
2022/08/16 00:05:05;;;;;;;0.00;0.00;;;22.20;77.60;;;;;;5072163;28;20079;-67
2022/08/16 00:07:30;;;;;;;0.45;0.45;;;22.20;77.30;;;;;;5070711;28;20482;-67
2022/08/16 00:09:57;;;;;;;0.00;0.00;;;22.20;77.70;;;;;;5071875;28;20084;-67
2022/08/16 00:12:23;;;;;;;0.00;0.00;;;22.10;77.50;;;;;;5072000;28;20058;-67
2022/08/16 00:14:49;;;;;;;0.00;0.00;;;22.10;77.90;;;;;;5058573;28;20045;-67
2022/08/16 00:17:15;;;;;;;0.00;0.00;;;22.20;77.90;;;;;;5050841;28;20048;-67
2022/08/16 00:19:40;;;;;;;0.00;0.00;;;22.10;77.90;;;;;;5050486;28;20596;-68
2022/08/16 00:22:06;;;;;;;0.00;0.00;;;22.10;78.30;;;;;;5062868;28;20361;-67
2022/08/16 00:24:33;;;;;;;0.00;0.00;;;22.10;78.40;;;;;;5051494;28;20076;-67
2022/08/16 00:27:02;;;;;;;0.00;0.00;;;22.10;78.00;;;;;;5055424;28;20044;-67
2022/08/16 00:29:28;;;;;;;0.00;0.00;;;22.10;78.30;;;;;;5056645;28;20489;-67
2022/08/16 00:31:54;;;;;;;0.00;0.00;;;22.10;78.40;;;;;;5059366;28;20087;-68
2022/08/16 00:34:21;;;;;;;0.00;0.00;;;22.10;78.70;;;;;;5058402;28;20041;-68
2022/08/16 00:36:48;;;;;;;0.00;0.00;;;22.10;78.80;;;;;;5066019;28;20045;-68
2022/08/16 00:39:16;;;;;;;0.00;0.00;;;22.10;78.60;;;;;;5055743;28;20486;-67
2022/08/16 00:41:43;;;;;;;0.00;0.00;;;22.10;78.70;;;;;;5053831;28;20471;-68
2022/08/16 00:44:10;;;;;;;0.00;0.00;;;22.10;78.60;;;;;;5069571;28;20037;-68
2022/08/16 00:47:00;;;;;;;0.00;0.00;;;22.10;78.60;;;;;;5051421;28;20053;-68
2022/08/16 00:49:26;;;;;;;0.00;0.00;;;22.10;78.70;;;;;;5067015;28;20040;-68
2022/08/16 00:51:52;;;;;;;0.00;0.00;;;22.10;78.50;;;;;;5066090;28;20494;-67
2022/08/16 00:54:20;;;;;;;0.00;0.00;;;22.10;78.50;;;;;;5051995;28;20043;-67
2022/08/16 00:56:49;;;;;;;0.00;0.00;;;22.10;78.30;;;;;;5069351;28;20040;-68
2022/08/16 00:59:16;;;;;;;0.00;0.00;;;22.20;78.20;;;;;;5054002;28;20052;-68
2022/08/16 01:01:42;;;;;;;0.00;0.00;;;22.10;78.40;;;;;;5053448;28;20043;-68
2022/08/16 01:04:09;;;;;;;0.00;0.00;;;22.20;78.70;;;;;;5061846;28;20037;-67
2022/08/16 01:06:36;;;;;;;0.00;0.00;;;22.10;78.70;;;;;;5051132;28;20048;-68
2022/08/16 01:09:05;;;;;;;0.00;0.00;;;22.10;78.80;;;;;;5060303;28;20080;-68
2022/08/16 01:11:32;;;;;;;0.00;0.00;;;22.10;79.10;;;;;;5057474;28;20060;-67
2022/08/16 01:14:04;;;;;;;0.00;0.00;;;22.10;79.90;;;;;;5061433;28;20064;-67
2022/08/16 01:16:30;;;;;;;0.00;0.00;;;22.10;79.90;;;;;;5065441;28;20528;-67
2022/08/16 01:19:22;;;;;;;0.40;0.32;;;22.10;80.10;;;;;;5055318;28;20054;-68
2022/08/16 01:21:54;;;;;;;0.00;0.00;;;22.10;80.20;;;;;;5051084;28;20079;-68
2022/08/16 01:24:33;;;;;;;0.00;0.00;;;22.00;80.30;;;;;;5051377;28;20067;-68
2022/08/16 01:27:05;;;;;;;0.00;0.00;;;22.00;80.20;;;;;;5055648;28;20036;-68
2022/08/16 01:29:57;;;;;;;0.00;0.00;;;22.00;80.50;;;;;;5057494;28;20106;-67
2022/08/16 01:32:22;;;;;;;;;;;22.00;80.30;;;;;;5047992;28;20101;-67
2022/08/16 01:34:48;;;;;;;0.00;0.00;;;22.00;80.30;;;;;;5068520;28;19928;-68
2022/08/16 01:37:14;;;;;;;0.10;0.10;;;22.00;80.00;;;;;;5070183;28;20044;-67
2022/08/16 01:39:41;;;;;;;0.00;0.00;;;21.90;79.90;;;;;;5070358;28;20033;-68
2022/08/16 01:42:08;;;;;;;0.00;0.00;;;21.90;80.20;;;;;;5070167;28;20504;-67
2022/08/16 01:44:35;;;;;;;0.00;0.00;;;21.90;80.10;;;;;;5069285;28;20113;-68
2022/08/16 01:47:01;;;;;;;0.10;0.10;;;21.90;80.00;;;;;;5054513;28;20040;-67
2022/08/16 01:49:38;;;;;;;0.00;0.00;;;21.80;79.70;;;;;;5068804;28;20106;-68
2022/08/16 01:52:07;;;;;;;0.00;0.00;;;21.80;79.70;;;;;;5066278;28;20041;-68
2022/08/16 01:54:34;;;;;;;0.10;0.10;;;21.70;79.50;;;;;;5055428;28;20043;-67
2022/08/16 01:57:00;;;;;;;0.00;0.00;;;21.70;79.90;;;;;;5049334;28;20053;-68
2022/08/16 01:59:27;;;;;;;0.00;0.00;;;21.70;80.10;;;;;;5058032;28;20420;-68
2022/08/16 02:01:53;;;;;;;0.00;0.00;;;21.60;80.00;;;;;;5053427;28;20413;-68
2022/08/16 02:04:20;;;;;;;0.00;0.00;;;21.60;80.10;;;;;;5068950;28;20032;-68
2022/08/16 02:06:46;;;;;;;0.10;0.10;;;21.60;80.40;;;;;;5060211;28;20498;-67
2022/08/16 02:09:13;;;;;;;0.00;0.00;;;21.60;80.50;;;;;;5054465;28;20071;-68
2022/08/16 02:11:43;;;;;;;0.00;0.00;;;21.60;80.30;;;;;;5048482;28;20060;-68
2022/08/16 02:14:09;;;;;;;0.00;0.00;;;21.60;80.40;;;;;;5050785;28;20146;-68
2022/08/16 02:16:35;;;;;;;0.00;0.00;;;21.50;80.50;;;;;;5066852;28;20421;-68
2022/08/16 02:19:02;;;;;;;0.00;0.00;;;21.60;80.40;;;;;;5052689;28;20045;-68
2022/08/16 02:21:28;;;;;;;0.00;0.00;;;21.50;80.70;;;;;;5062047;28;20041;-68
2022/08/16 02:23:54;;;;;;;0.00;0.00;;;21.60;80.50;;;;;;5050229;28;20045;-68
2022/08/16 02:26:20;;;;;;;0.00;0.00;;;21.60;80.60;;;;;;5059858;28;20043;-67
2022/08/16 02:28:45;;;;;;;0.00;0.00;;;21.50;80.80;;;;;;5064639;28;20032;-68
2022/08/16 02:31:13;;;;;;;0.10;0.10;;;21.50;80.60;;;;;;5056000;28;20041;-67
2022/08/16 02:33:41;;;;;;;0.10;0.10;;;21.50;80.70;;;;;;5049732;28;20044;-68
2022/08/16 02:36:07;;;;;;;0.00;0.00;;;21.50;80.50;;;;;;5068983;28;20516;-68
2022/08/16 02:38:33;;;;;;;0.00;0.00;;;21.50;80.40;;;;;;5069464;28;20097;-66
2022/08/16 02:41:01;;;;;;;0.00;0.00;;;21.50;80.70;;;;;;5069517;28;20119;-66
2022/08/16 02:43:29;;;;;;;0.00;0.00;;;21.40;80.80;;;;;;5069898;28;20082;-66
2022/08/16 02:45:56;;;;;;;0.00;0.00;;;21.40;80.90;;;;;;5065090;28;20078;-66
2022/08/16 02:48:23;;;;;;;0.00;0.00;;;21.40;80.70;;;;;;5064202;28;20041;-66
2022/08/16 02:50:49;;;;;;;0.00;0.00;;;21.30;80.50;;;;;;5054502;28;20049;-66
2022/08/16 02:53:15;;;;;;;0.10;0.10;;;21.30;80.60;;;;;;5050477;28;20394;-66
2022/08/16 02:55:40;;;;;;;0.00;0.00;;;21.30;80.60;;;;;;5069193;28;20048;-66
2022/08/16 02:58:06;;;;;;;0.00;0.00;;;21.30;80.50;;;;;;5068810;28;20063;-66
2022/08/16 03:00:31;;;;;;;0.00;0.00;;;21.20;80.40;;;;;;5069420;28;20040;-66
2022/08/16 03:02:57;;;;;;;0.00;0.00;;;21.20;80.80;;;;;;5053193;28;20037;-66
2022/08/16 03:05:24;;;;;;;0.00;0.00;;;21.10;80.60;;;;;;5069215;28;20047;-67
2022/08/16 03:07:50;;;;;;;0.00;0.00;;;21.10;80.90;;;;;;5056499;28;20037;-66
2022/08/16 03:10:16;;;;;;;0.00;0.00;;;21.10;80.80;;;;;;5066702;28;20515;-66
2022/08/16 03:12:45;;;;;;;0.10;0.10;;;21.10;80.90;;;;;;5067989;28;20178;-67
2022/08/16 03:15:13;;;;;;;0.00;0.00;;;21.10;80.70;;;;;;5068320;28;20053;-67
2022/08/16 03:17:39;;;;;;;0.00;0.00;;;21.00;80.70;;;;;;5069586;28;20049;-67
2022/08/16 03:20:07;;;;;;;0.00;0.00;;;21.00;80.70;;;;;;5053382;28;20071;-67
2022/08/16 03:22:33;;;;;;;0.00;0.00;;;21.00;80.50;;;;;;5056221;28;20048;-66
2022/08/16 03:25:00;;;;;;;0.00;0.00;;;21.00;80.80;;;;;;5056398;28;20028;-66
2022/08/16 03:27:29;;;;;;;0.00;0.00;;;21.00;80.80;;;;;;5053029;28;20138;-67
2022/08/16 03:29:54;;;;;;;0.00;0.00;;;20.90;80.80;;;;;;5060241;28;20501;-66
2022/08/16 03:32:20;;;;;;;0.00;0.00;;;20.90;80.90;;;;;;5072658;28;20037;-67
2022/08/16 03:34:46;;;;;;;0.00;0.00;;;21.00;81.00;;;;;;5061618;28;20045;-66
2022/08/16 03:37:12;;;;;;;0.00;0.00;;;20.90;81.00;;;;;;5052645;28;20052;-66
2022/08/16 03:39:38;;;;;;;0.00;0.00;;;20.90;80.90;;;;;;5052458;28;20402;-66
2022/08/16 03:42:05;;;;;;;0.00;0.00;;;20.90;80.80;;;;;;5052468;28;20045;-67
2022/08/16 03:44:31;;;;;;;0.00;0.00;;;20.80;80.60;;;;;;5052246;28;20037;-67
2022/08/16 03:46:57;;;;;;;0.00;0.00;;;20.80;80.70;;;;;;5052408;28;20107;-67
2022/08/16 03:49:23;;;;;;;0.00;0.00;;;20.70;80.50;;;;;;5063023;28;20147;-66
2022/08/16 03:51:48;;;;;;;0.00;0.00;;;20.60;80.70;;;;;;5066686;28;20131;-67
2022/08/16 03:54:14;;;;;;;0.00;0.00;;;20.60;80.70;;;;;;5071929;28;20501;-67
2022/08/16 03:56:41;;;;;;;0.00;0.00;;;20.60;80.80;;;;;;5056314;28;20052;-67
2022/08/16 03:59:07;;;;;;;0.00;0.00;;;20.60;80.90;;;;;;5066973;28;20094;-66
2022/08/16 04:01:33;;;;;;;0.00;0.00;;;20.50;81.00;;;;;;5070440;28;20041;-66
2022/08/16 04:03:58;;;;;;;0.00;0.00;;;20.50;81.00;;;;;;5070274;28;20867;-69
2022/08/16 04:06:24;;;;;;;0.00;0.00;;;20.50;81.00;;;;;;5068443;28;20443;-66
2022/08/16 04:08:50;;;;;;;0.00;0.00;;;20.40;81.10;;;;;;5057994;28;20041;-66
2022/08/16 04:11:16;;;;;;;0.10;0.10;;;20.40;81.10;;;;;;5060656;28;20489;-67
2022/08/16 04:13:42;;;;;;;0.00;0.00;;;20.40;81.10;;;;;;5063234;28;20505;-67
2022/08/16 04:16:10;;;;;;;0.00;0.00;;;20.30;81.00;;;;;;5062947;28;20029;-67
2022/08/16 04:18:37;;;;;;;0.00;0.00;;;20.30;81.00;;;;;;5051776;28;20486;-66
2022/08/16 04:21:03;;;;;;;0.00;0.00;;;20.30;81.00;;;;;;5059989;28;20049;-67
2022/08/16 04:23:29;;;;;;;0.00;0.00;;;20.30;81.20;;;;;;5055778;28;20045;-66
2022/08/16 04:25:55;;;;;;;0.00;0.00;;;20.20;81.40;;;;;;5066434;28;20090;-66
2022/08/16 04:28:20;;;;;;;0.00;0.00;;;20.20;81.50;;;;;;5070766;28;20045;-67
2022/08/16 04:30:46;;;;;;;0.10;0.10;;;20.20;81.40;;;;;;5058106;28;20052;-67
2022/08/16 04:33:11;;;;;;;0.00;0.00;;;20.20;81.40;;;;;;5051310;28;20041;-67
2022/08/16 04:35:37;;;;;;;0.00;0.00;;;20.20;81.20;;;;;;5054826;28;20043;-67
2022/08/16 04:38:04;;;;;;;0.00;0.00;;;20.10;81.30;;;;;;5071267;28;20045;-67
2022/08/16 04:40:30;;;;;;;0.20;0.20;;;20.10;81.30;;;;;;5071236;28;20041;-67
2022/08/16 04:42:56;;;;;;;0.00;0.00;;;20.10;81.30;;;;;;5070114;28;20444;-67
2022/08/16 04:45:23;;;;;;;0.00;0.00;;;20.10;81.50;;;;;;5070190;28;20044;-67
2022/08/16 04:47:48;;;;;;;0.00;0.00;;;20.10;81.60;;;;;;5060821;28;20053;-67
2022/08/16 04:50:21;;;;;;;0.00;0.00;;;20.10;81.60;;;;;;5051546;28;20087;-67
2022/08/16 04:52:48;;;;;;;0.00;0.00;;;20.10;81.50;;;;;;5065317;28;20040;-67
2022/08/16 04:55:17;;;;;;;0.00;0.00;;;20.10;81.60;;;;;;5060190;28;20064;-67
2022/08/16 04:57:44;;;;;;;0.00;0.00;;;20.10;81.60;;;;;;5053729;28;20092;-67
2022/08/16 05:00:14;;;;;;;0.00;0.00;;;20.10;81.80;;;;;;5051531;28;20040;-67
2022/08/16 05:02:40;;;;;;;0.00;0.00;;;20.20;81.80;;;;;;5058845;28;20056;-67
2022/08/16 05:05:07;;;;;;;0.00;0.00;;;20.20;81.50;;;;;;5070766;28;20513;-67
2022/08/16 05:07:32;;;;;;;0.00;0.00;;;20.20;81.30;;;;;;5066996;28;20079;-68
2022/08/16 05:09:58;;;;;;;0.00;0.00;;;20.30;81.20;;;;;;5068233;28;20466;-68
2022/08/16 05:12:23;;;;;;;0.00;0.00;;;20.20;81.30;;;;;;5051122;28;20089;-68
2022/08/16 05:14:49;;;;;;;0.00;0.00;;;20.30;81.30;;;;;;5066021;28;20062;-68
2022/08/16 05:17:15;;;;;;;0.00;0.00;;;20.30;81.20;;;;;;5066068;28;20459;-63
2022/08/16 05:19:40;;;;;;;0.00;0.00;;;20.30;81.50;;;;;;5070302;28;20079;-64
2022/08/16 05:22:06;;;;;;;0.00;0.00;;;20.40;82.00;;;;;;5052779;28;20094;-64
2022/08/16 05:24:32;;;;;;;0.10;0.10;;;20.50;81.60;;;;;;5061542;28;20048;-64
2022/08/16 05:26:57;;;;;;;0.00;0.00;;;20.50;81.30;;;;;;5058522;28;20037;-64
2022/08/16 05:29:23;;;;;;;0.00;0.00;;;20.50;81.10;;;;;;5052177;28;20414;-64
2022/08/16 05:31:48;;;;;;;0.85;0.38;;;20.50;81.20;;;;;;5060675;28;20047;-64
2022/08/16 05:34:15;;;;;;;0.00;0.00;;;20.50;81.20;;;;;;5051638;28;20127;-64
2022/08/16 05:36:41;;;;;;;0.00;0.00;;;20.50;81.30;;;;;;5050435;28;20079;-64
2022/08/16 05:39:08;;;;;;;0.45;0.22;;;20.50;81.30;;;;;;5050246;28;20375;-64
2022/08/16 05:41:35;;;;;;;0.00;0.00;;;20.60;81.50;;;;;;5052256;28;20456;-64
2022/08/16 05:44:00;;;;;;;0.00;0.00;;;20.60;81.20;;;;;;5049802;28;20080;-66
2022/08/16 05:46:26;;;;;;;0.00;0.00;;;20.90;82.70;;;;;;5052387;28;20484;-67
2022/08/16 05:48:52;;;;;;;0.08;0.08;;;21.10;81.70;;;;;;5050421;28;20125;-67
2022/08/16 05:51:18;;;;;;;0.05;0.05;;;21.40;80.90;;;;;;5053602;28;20170;-67
2022/08/16 05:53:44;;;;;;;0.00;0.00;;;21.50;80.30;;;;;;5049608;28;20037;-66
2022/08/16 05:56:10;;;;;;;0.00;0.00;;;21.50;80.00;;;;;;5066049;28;20044;-66
2022/08/16 05:58:36;;;;;;;0.00;0.00;;;21.60;79.90;;;;;;5055583;28;20048;-67
2022/08/16 06:01:03;;;;;;;0.00;0.00;;;21.60;79.80;;;;;;5066229;28;20563;-67
2022/08/16 06:03:29;;;;;;;0.00;0.00;;;21.60;79.70;;;;;;5048576;28;20073;-67
2022/08/16 06:05:54;;;;;;;0.00;0.00;;;21.60;79.70;;;;;;5062045;28;20193;-65
2022/08/16 06:08:20;;;;;;;0.43;0.20;;;21.60;79.90;;;;;;5067404;28;20549;-67
2022/08/16 06:10:45;;;;;;;0.10;0.10;;;21.60;80.10;;;;;;5065707;28;20393;-67
2022/08/16 06:13:11;;;;;;;0.20;0.20;;;21.60;80.40;;;;;;5060374;28;20036;-67
2022/08/16 06:15:37;;;;;;;0.10;0.10;;;21.50;80.40;;;;;;5059625;28;20044;-67
2022/08/16 06:18:02;;;;;;;0.00;0.00;;;21.50;80.50;;;;;;5067172;28;20040;-65
2022/08/16 06:20:29;;;;;;;0.00;0.00;;;21.50;80.40;;;;;;5067868;28;20059;-63
2022/08/16 06:22:55;;;;;;;0.00;0.00;;;21.50;80.70;;;;;;5057866;28;20090;-63
2022/08/16 06:25:22;;;;;;;0.00;0.00;;;21.50;80.90;;;;;;5070123;28;20362;-63
2022/08/16 06:27:48;;;;;;;0.00;0.00;;;21.60;80.90;;;;;;5055702;28;21125;-63
2022/08/16 06:30:14;;;;;;;0.00;0.00;;;21.60;80.80;;;;;;5049098;28;20133;-63
2022/08/16 06:32:40;;;;;;;0.73;0.43;;;21.60;80.60;;;;;;5050399;28;20591;-63
2022/08/16 06:35:06;;;;;;;0.38;0.38;;;21.70;80.70;;;;;;5049266;28;20063;-67
2022/08/16 06:37:32;;;;;;;0.10;0.10;;;21.70;80.50;;;;;;5057608;28;20051;-67
2022/08/16 06:39:58;;;;;;;0.08;0.08;;;21.70;80.70;;;;;;5048775;28;20037;-64
2022/08/16 06:42:24;;;;;;;0.00;0.00;;;21.80;80.20;;;;;;5058527;28;20122;-67
2022/08/16 06:44:50;;;;;;;0.73;0.45;;;21.80;81.50;;;;;;5053354;28;20096;-67
2022/08/16 06:47:15;;;;;;;0.20;0.20;;;21.90;81.70;;;;;;5062138;28;20040;-67
2022/08/16 06:49:41;;;;;;;0.73;0.73;;;22.00;81.80;;;;;;5065392;28;20047;-66
2022/08/16 06:52:07;;;;;;;0.00;0.00;;;22.00;81.30;;;;;;5068909;28;20098;-64
2022/08/16 06:54:33;;;;;;;0.00;0.00;;;22.10;81.20;;;;;;5052662;28;20049;-66
2022/08/16 06:57:00;;;;;;;0.00;0.00;;;22.20;81.20;;;;;;5054812;28;20104;-65
2022/08/16 06:59:26;;;;;;;0.10;0.10;;;22.30;81.50;;;;;;5054058;28;20498;-65
2022/08/16 07:01:51;;;;;;;5.22;1.55;;;22.40;82.00;;;;;;5053357;28;20041;-65
2022/08/16 07:04:17;;;;;;;0.22;0.22;;;22.50;80.50;;;;;;5053237;28;20044;-65
2022/08/16 07:06:43;;;;;;;0.43;0.43;;;22.50;80.00;;;;;;5052598;28;20033;-65
2022/08/16 07:09:10;;;;;;;6.60;0.90;;;22.50;79.60;;;;;;5071505;28;20049;-65
2022/08/16 07:11:36;;;;;;;0.00;0.00;;;22.50;79.90;;;;;;5072795;28;20450;-65
2022/08/16 07:14:02;;;;;;;1.15;0.55;;;22.50;79.70;;;;;;5054629;28;20040;-66
2022/08/16 07:16:27;;;;;;;0.00;0.00;;;22.50;80.00;;;;;;5052884;28;20052;-66
2022/08/16 07:18:53;;;;;;;0.00;0.00;;;22.50;79.70;;;;;;5053808;28;20056;-65
2022/08/16 07:21:19;;;;;;;1.30;1.20;;;22.50;79.60;;;;;;5072079;28;20044;-65
2022/08/16 07:23:45;;;;;;;0.43;0.43;;;22.50;79.50;;;;;;5072242;28;20048;-65
2022/08/16 07:26:16;;;;;;;0.00;0.00;;;22.40;79.60;;;;;;5072380;28;20077;-66
2022/08/16 07:28:41;;;;;;;0.28;0.28;;;22.50;79.40;;;;;;5072197;28;20040;-65
2022/08/16 07:31:07;;;;;;;0.20;0.15;;;22.50;79.30;;;;;;5071760;28;20059;-66
2022/08/16 07:33:34;;;;;;;0.00;0.00;;;22.50;79.50;;;;;;5072150;28;20048;-65
2022/08/16 07:36:00;;;;;;;0.00;0.00;;;22.50;79.80;;;;;;5072327;28;20103;-65
2022/08/16 07:38:26;;;;;;;0.57;0.57;;;22.50;79.90;;;;;;5071596;28;20064;-66
2022/08/16 07:40:55;;;;;;;0.00;0.00;;;22.50;80.20;;;;;;5072010;28;20057;-66
2022/08/16 07:43:22;;;;;;;0.22;0.22;;;22.60;80.40;;;;;;5072275;28;20062;-65
2022/08/16 07:45:48;;;;;;;0.13;0.13;;;22.70;80.60;;;;;;5072062;28;20055;-65
2022/08/16 07:48:15;;;;;;;0.00;0.00;;;22.80;80.30;;;;;;5071871;28;20102;-65
2022/08/16 07:50:42;;;;;;;1.75;0.80;;;22.90;80.10;;;;;;5071579;28;20150;-65
2022/08/16 07:53:07;;;;;;;0.00;0.00;;;22.90;80.10;;;;;;5071725;28;20072;-65
2022/08/16 07:55:33;;;;;;;0.03;0.03;;;23.00;80.10;;;;;;5071532;28;20080;-65
2022/08/16 07:57:59;;;;;;;0.08;0.05;;;23.00;79.90;;;;;;5071805;28;20413;-66
2022/08/16 08:00:24;;;;;;;0.10;0.10;;;23.00;79.80;;;;;;5071323;28;20049;-66
2022/08/16 08:02:50;;;;;;;0.08;0.08;;;23.00;79.60;;;;;;5071160;28;20558;-66
2022/08/16 08:05:16;;;;;;;0.00;0.00;;;22.90;78.30;;;;;;5071474;28;20105;-66
2022/08/16 08:07:41;;;;;;;0.00;0.00;;;23.00;78.40;;;;;;5071354;28;20401;-66
2022/08/16 08:10:08;;;;;;;0.00;0.00;;;22.90;78.70;;;;;;5071765;28;20052;-66
2022/08/16 08:12:34;;;;;;;1.13;0.73;;;22.90;78.90;;;;;;5071208;28;20830;-65
2022/08/16 08:15:00;;;;;;;0.20;0.20;;;22.90;79.00;;;;;;5071142;28;20139;-66
2022/08/16 08:17:28;;;;;;;0.25;0.15;;;23.00;78.90;;;;;;5071291;28;20055;-65
2022/08/16 08:19:54;;;;;;;0.30;0.30;;;23.00;79.50;;;;;;5070819;28;20061;-66
2022/08/16 08:22:21;;;;;;;0.10;0.10;;;23.00;79.20;;;;;;5071200;28;20417;-65
2022/08/16 08:24:47;;;;;;;0.13;0.13;;;23.00;79.20;;;;;;5071207;28;20055;-66
2022/08/16 08:27:13;;;;;;;0.88;0.40;;;23.10;78.90;;;;;;5071336;28;20529;-66
2022/08/16 08:29:40;;;;;;;0.10;0.10;;;23.10;78.90;;;;;;5071991;28;20093;-65
2022/08/16 08:32:07;;;;;;;2.35;0.38;;;23.20;78.30;;;;;;5071398;28;20101;-66
2022/08/16 08:34:33;;;;;;;0.10;0.10;;;23.30;78.40;;;;;;5071053;28;20040;-65
2022/08/16 08:36:58;;;;;;;0.95;0.75;;;23.40;78.50;;;;;;5070726;28;20512;-65
2022/08/16 08:39:24;;;;;;;0.10;0.10;;;23.40;78.40;;;;;;5071112;28;20082;-66
2022/08/16 08:41:51;;;;;;;0.90;0.90;;;23.50;77.80;;;;;;5070869;28;20405;-65
2022/08/16 08:44:18;;;;;;;1.55;0.52;;;23.50;77.50;;;;;;5070496;28;20071;-65
2022/08/16 08:46:43;;;;;;;0.80;0.40;;;23.60;77.30;;;;;;5069679;28;20102;-65
2022/08/16 08:49:09;;;;;;;0.25;0.25;;;23.60;76.90;;;;;;5055850;28;20057;-66
2022/08/16 08:51:37;;;;;;;0.00;0.00;;;23.60;76.20;;;;;;5056094;28;20040;-65
2022/08/16 08:54:04;;;;;;;0.00;0.00;;;23.70;76.10;;;;;;5055646;28;20044;-65
2022/08/16 08:56:30;;;;;;;0.35;0.35;;;23.80;75.90;;;;;;5058621;28;20136;-66
2022/08/16 08:58:56;;;;;;;0.00;0.00;;;23.80;75.80;;;;;;5063097;28;20148;-66
2022/08/16 09:01:28;;;;;;;10.55;0.93;;;23.90;75.50;;;;;;5060355;28;20417;-65
2022/08/16 09:03:53;;;;;;;0.00;0.00;;;23.90;75.00;;;;;;5059818;28;20206;-65
2022/08/16 09:06:19;;;;;;;1.13;0.57;;;24.00;75.00;;;;;;5067482;28;20131;-65
2022/08/16 09:08:45;;;;;;;0.00;0.00;;;24.00;74.30;;;;;;5061710;28;20405;-65
2022/08/16 09:11:10;;;;;;;0.00;0.00;;;24.10;72.50;;;;;;5055400;28;20041;-65
2022/08/16 09:13:36;;;;;;;0.75;0.52;;;24.10;71.70;;;;;;5065186;28;20036;-65
2022/08/16 09:16:02;;;;;;;0.20;0.20;;;24.20;72.40;;;;;;5052250;28;20037;-65
2022/08/16 09:18:29;;;;;;;0.10;0.10;;;24.30;72.70;;;;;;5058250;28;20123;-65
2022/08/16 09:20:55;;;;;;;0.38;0.35;;;24.30;71.60;;;;;;5058072;28;20045;-65
2022/08/16 09:23:22;;;;;;;0.00;0.00;;;24.30;71.10;;;;;;5060147;28;20507;-66
2022/08/16 09:25:48;;;;;;;0.00;0.00;;;24.30;72.00;;;;;;5058625;28;20064;-65
2022/08/16 09:28:14;;;;;;;0.08;0.08;;;24.30;71.40;;;;;;5058776;28;20135;-66
2022/08/16 09:30:41;;;;;;;0.40;0.40;;;24.40;71.20;;;;;;5053016;28;20048;-65
2022/08/16 09:33:07;;;;;;;2.10;0.88;;;24.40;70.30;;;;;;5058882;28;20072;-66
2022/08/16 09:35:36;;;;;;;5.50;1.08;;;24.40;71.00;;;;;;5059744;28;20044;-65
2022/08/16 09:38:02;;;;;;;0.00;0.00;;;24.50;70.90;;;;;;5061630;28;20052;-65
2022/08/16 09:40:28;;;;;;;0.00;0.00;;;24.50;71.10;;;;;;5059343;28;20040;-66
2022/08/16 09:42:57;;;;;;;0.03;0.03;;;24.50;71.10;;;;;;5056357;28;20045;-65
2022/08/16 09:45:24;;;;;;;0.10;0.10;;;24.70;71.60;;;;;;5051206;28;20051;-66
2022/08/16 09:47:53;;;;;;;0.05;0.05;;;24.70;70.60;;;;;;5050577;28;20044;-66
2022/08/16 09:50:20;;;;;;;0.00;0.00;;;24.80;70.20;;;;;;5053667;28;20556;-66
2022/08/16 09:52:46;;;;;;;0.00;0.00;;;24.70;68.80;;;;;;5049895;28;20116;-66
2022/08/16 09:55:12;;;;;;;0.10;0.10;;;24.90;70.00;;;;;;5050200;28;20640;-66
2022/08/16 09:57:40;;;;;;;0.90;0.90;;;24.90;69.70;;;;;;5059042;28;20045;-66
2022/08/16 10:00:09;;;;;;;0.52;0.35;;;24.90;68.80;;;;;;5054665;28;20037;-65
2022/08/16 10:02:35;;;;;;;0.10;0.10;;;25.00;68.90;;;;;;5061536;28;20502;-65
2022/08/16 10:05:02;;;;;;;0.57;0.57;;;25.00;69.00;;;;;;5058160;28;20045;-68
2022/08/16 10:07:30;;;;;;;0.65;0.65;;;25.10;68.50;;;;;;5055084;28;20206;-67
2022/08/16 10:09:55;;;;;;;0.00;0.00;;;25.10;68.10;;;;;;5062289;28;20036;-68
2022/08/16 10:15:07;;;;;;;0.03;0.03;;;25.20;68.60;;;;;;5068441;28;20037;-68
2022/08/16 10:17:34;;;;;;;0.10;0.10;;;25.20;67.30;;;;;;5069386;28;20055;-68
2022/08/16 10:19:59;;;;;;;0.10;0.10;;;25.40;68.20;;;;;;5069150;28;20323;-68
2022/08/16 10:22:25;;;;;;;0.25;0.25;;;25.50;67.40;;;;;;5065460;28;20099;-67
2022/08/16 10:24:52;;;;;;;0.65;0.30;;;25.50;67.90;;;;;;5051688;28;20440;-68
2022/08/16 10:27:19;;;;;;;0.00;0.00;;;25.50;66.80;;;;;;5063684;28;20053;-68
2022/08/16 10:29:45;;;;;;;0.00;0.00;;;25.50;66.70;;;;;;5063732;28;20051;-67
2022/08/16 10:32:11;;;;;;;0.88;0.55;;;25.60;66.90;;;;;;5051674;28;20083;-67
2022/08/16 10:34:36;;;;;;;0.00;0.00;;;25.60;67.30;;;;;;5048021;28;20041;-68
2022/08/16 10:37:02;;;;;;;0.00;0.00;;;25.70;67.00;;;;;;5055469;28;20048;-68
2022/08/16 10:39:28;;;;;;;0.13;0.13;;;25.70;67.80;;;;;;5049224;28;20437;-68
2022/08/16 10:41:53;;;;;;;2.50;1.02;;;25.80;67.80;;;;;;5053223;28;20049;-68
2022/08/16 10:44:19;;;;;;;0.90;0.90;;;25.80;67.10;;;;;;5065481;28;20444;-68
2022/08/16 10:46:45;;;;;;;0.00;0.00;;;25.80;67.70;;;;;;5051883;28;20047;-67
2022/08/16 10:49:12;;;;;;;0.10;0.10;;;25.80;67.60;;;;;;5054065;28;20449;-68
2022/08/16 10:51:38;;;;;;;0.52;0.52;;;25.90;67.70;;;;;;5068556;28;20055;-68
2022/08/16 10:54:05;;;;;;;0.22;0.20;;;25.90;67.50;;;;;;5057180;28;20064;-68
2022/08/16 10:56:31;;;;;;;0.20;0.20;;;26.00;67.70;;;;;;5049008;28;20053;-67
2022/08/16 10:58:58;;;;;;;0.20;0.20;;;26.00;67.90;;;;;;5048751;28;20049;-68
2022/08/16 11:01:24;;;;;;;0.00;0.00;;;26.10;67.70;;;;;;5056950;28;20056;-68
2022/08/16 11:03:52;;;;;;;0.00;0.00;;;26.10;67.00;;;;;;5062151;28;20048;-67
2022/08/16 11:06:18;;;;;;;0.90;0.30;;;26.20;66.70;;;;;;5056507;28;20476;-68
2022/08/16 11:08:43;;;;;;;0.68;0.50;;;26.20;65.10;;;;;;5055244;28;20132;-67
2022/08/16 11:11:10;;;;;;;0.00;0.00;;;26.10;65.50;;;;;;5060579;28;20048;-67
2022/08/16 11:13:36;;;;;;;0.00;0.00;;;26.10;63.40;;;;;;5050362;28;20111;-68
2022/08/16 11:16:03;;;;;;;1.13;0.45;;;26.00;63.60;;;;;;5068429;28;20072;-68
2022/08/16 11:18:29;;;;;;;0.13;0.13;;;26.10;64.90;;;;;;5068577;28;20045;-68
2022/08/16 11:20:55;;;;;;;0.00;0.00;;;26.00;64.70;;;;;;5068729;28;20920;-68
2022/08/16 11:23:21;;;;;;;0.10;0.10;;;26.00;65.50;;;;;;5069157;28;20040;-68
2022/08/16 11:25:47;;;;;;;0.30;0.30;;;25.90;65.50;;;;;;5067563;28;20056;-68
2022/08/16 11:28:13;;;;;;;0.10;0.10;;;26.00;66.60;;;;;;5068570;28;20041;-68
2022/08/16 11:30:40;;;;;;;1.95;0.82;;;26.20;66.70;;;;;;5068534;28;20057;-68
2022/08/16 11:33:09;;;;;;;0.00;0.00;;;26.20;65.50;;;;;;5068852;28;20055;-67
2022/08/16 11:35:36;;;;;;;0.00;0.00;;;26.20;66.00;;;;;;5068606;28;20048;-68
2022/08/16 11:38:09;;;;;;;0.00;0.00;;;26.40;66.60;;;;;;5071027;28;20052;-67
2022/08/16 11:40:45;;;;;;;0.20;0.20;;;26.50;65.60;;;;;;5057547;28;20041;-68
2022/08/16 11:43:13;;;;;;;0.00;0.00;;;26.50;64.30;;;;;;5052324;28;20044;-68
2022/08/16 11:45:38;;;;;;;0.10;0.10;;;26.50;65.20;;;;;;5059321;28;20047;-68
2022/08/16 11:48:04;;;;;;;0.95;0.50;;;26.60;65.60;;;;;;5059131;28;20342;-68
2022/08/16 11:50:32;;;;;;;0.50;0.28;;;26.60;64.80;;;;;;5053040;28;20589;-68
2022/08/16 11:52:59;;;;;;;0.00;0.00;;;26.80;65.90;;;;;;5062322;28;20052;-68
2022/08/16 11:55:25;;;;;;;0.35;0.25;;;26.90;63.40;;;;;;5053226;28;20107;-68
2022/08/16 11:57:50;;;;;;;0.00;0.00;;;26.90;63.50;;;;;;5052953;28;20115;-68
2022/08/16 12:00:16;;;;;;;0.00;0.00;;;26.90;63.60;;;;;;5052249;28;20056;-68
2022/08/16 12:02:42;;;;;;;0.00;0.00;;;26.90;62.90;;;;;;5051752;28;20041;-68
2022/08/16 12:05:11;;;;;;;0.10;0.10;;;26.90;62.70;;;;;;5052107;28;20526;-68
2022/08/16 12:07:36;;;;;;;0.00;0.00;;;27.00;63.30;;;;;;5052009;28;20044;-68
2022/08/16 12:10:06;;;;;;;0.25;0.22;;;27.00;63.70;;;;;;5052021;28;20041;-68
2022/08/16 12:12:31;;;;;;;0.00;0.00;;;26.90;63.70;;;;;;5050913;28;20512;-68
2022/08/16 12:14:57;;;;;;;0.55;0.55;;;26.90;62.80;;;;;;5051654;28;20041;-68
2022/08/16 12:17:22;;;;;;;0.63;0.63;;;26.90;63.00;;;;;;5051926;28;20045;-68
2022/08/16 12:19:48;;;;;;;0.20;0.20;;;26.80;62.40;;;;;;5057300;28;20401;-68
2022/08/16 12:22:15;;;;;;;0.28;0.28;;;26.60;63.00;;;;;;5062005;28;20558;-67
2022/08/16 12:24:41;;;;;;;0.10;0.10;;;26.60;64.10;;;;;;5056354;28;20115;-68
2022/08/16 12:27:06;;;;;;;0.20;0.20;;;26.50;65.00;;;;;;5045363;28;20127;-68
2022/08/16 12:29:32;;;;;;;0.10;0.10;;;26.60;65.10;;;;;;5061974;28;20037;-68
2022/08/16 12:31:58;;;;;;;0.25;0.25;;;26.70;64.70;;;;;;5068228;28;20060;-67
2022/08/16 12:34:23;;;;;;;0.20;0.20;;;26.80;63.30;;;;;;5067515;28;20045;-68
2022/08/16 12:36:49;;;;;;;0.03;0.03;;;26.70;64.00;;;;;;5052693;28;20040;-68
2022/08/16 12:39:16;;;;;;;0.00;0.00;;;26.80;63.90;;;;;;5051239;28;20048;-67
2022/08/16 12:41:45;;;;;;;0.20;0.20;;;26.90;63.90;;;;;;5050353;28;20520;-67
2022/08/16 12:44:12;;;;;;;0.05;0.05;;;26.90;63.70;;;;;;5051061;28;20041;-68
2022/08/16 12:46:38;;;;;;;0.05;0.05;;;26.90;63.80;;;;;;5051514;28;20409;-68